sensor_id;sensor_type;location;lat;lon;timestamp;pressure;altitude;pressure_sealevel;temperature;humidity
73700;BME280;62005;50.082;8.988;2024-02-14T00:01:42;100917.56;;;6.69;88.16
73700;BME280;62005;50.082;8.988;2024-02-14T00:04:08;100904.84;;;6.63;87.65
73700;BME280;62005;50.082;8.988;2024-02-14T00:06:37;100914.88;;;6.69;88.44
73700;BME280;62005;50.082;8.988;2024-02-14T00:09:02;100901.34;;;6.63;88.14
73700;BME280;62005;50.082;8.988;2024-02-14T00:11:28;100917.66;;;6.76;88.90
73700;BME280;62005;50.082;8.988;2024-02-14T00:13:53;100917.66;;;6.76;88.04
73700;BME280;62005;50.082;8.988;2024-02-14T00:16:21;100930.53;;;6.80;88.07
73700;BME280;62005;50.082;8.988;2024-02-14T00:18:46;100926.34;;;6.78;89.49
73700;BME280;62005;50.082;8.988;2024-02-14T00:21:11;100918.47;;;6.76;88.92
73700;BME280;62005;50.082;8.988;2024-02-14T00:23:38;100915.16;;;6.74;88.90
73700;BME280;62005;50.082;8.988;2024-02-14T00:26:03;100928.50;;;6.82;89.04
73700;BME280;62005;50.082;8.988;2024-02-14T00:28:29;100928.13;;;6.85;90.06
73700;BME280;62005;50.082;8.988;2024-02-14T00:30:54;100934.81;;;6.89;89.76
73700;BME280;62005;50.082;8.988;2024-02-14T00:33:20;100932.13;;;6.89;89.35
73700;BME280;62005;50.082;8.988;2024-02-14T00:35:47;100929.78;;;6.86;89.57
73700;BME280;62005;50.082;8.988;2024-02-14T00:38:12;100939.81;;;6.92;90.18
73700;BME280;62005;50.082;8.988;2024-02-14T00:40:38;100941.09;;;6.96;90.36
73700;BME280;62005;50.082;8.988;2024-02-14T00:43:03;100924.88;;;6.90;89.23
73700;BME280;62005;50.082;8.988;2024-02-14T00:45:29;100906.63;;;6.85;90.15
73700;BME280;62005;50.082;8.988;2024-02-14T00:47:54;100933.69;;;6.98;90.20
73700;BME280;62005;50.082;8.988;2024-02-14T00:50:19;100931.66;;;7.00;90.27
73700;BME280;62005;50.082;8.988;2024-02-14T00:52:45;100919.22;;;6.99;89.99
73700;BME280;62005;50.082;8.988;2024-02-14T00:55:10;100927.94;;;7.01;90.12
73700;BME280;62005;50.082;8.988;2024-02-14T00:57:36;100919.22;;;6.99;90.55
73700;BME280;62005;50.082;8.988;2024-02-14T01:00:02;100929.22;;;7.05;89.96
73700;BME280;62005;50.082;8.988;2024-02-14T01:02:29;100912.66;;;7.02;89.81
73700;BME280;62005;50.082;8.988;2024-02-14T01:04:55;100912.19;;;6.98;89.81
73700;BME280;62005;50.082;8.988;2024-02-14T01:07:20;100929.22;;;7.05;90.90
73700;BME280;62005;50.082;8.988;2024-02-14T01:09:46;100904.31;;;6.97;90.96
73700;BME280;62005;50.082;8.988;2024-02-14T01:12:11;100925.50;;;7.06;91.45
73700;BME280;62005;50.082;8.988;2024-02-14T01:14:37;100909.38;;;7.06;89.82
73700;BME280;62005;50.082;8.988;2024-02-14T01:17:02;100909.38;;;7.06;90.28
73700;BME280;62005;50.082;8.988;2024-02-14T01:19:29;100909.28;;;7.14;91.10
73700;BME280;62005;50.082;8.988;2024-02-14T01:21:55;100865.28;;;6.86;90.71
73700;BME280;62005;50.082;8.988;2024-02-14T01:24:22;100904.56;;;7.16;90.35
73700;BME280;62005;50.082;8.988;2024-02-14T01:26:47;100902.06;;;7.15;90.76
73700;BME280;62005;50.082;8.988;2024-02-14T01:29:13;100893.34;;;7.13;90.95
73700;BME280;62005;50.082;8.988;2024-02-14T01:31:38;100894.56;;;7.10;91.86
73700;BME280;62005;50.082;8.988;2024-02-14T01:34:03;100876.94;;;7.08;90.19
73700;BME280;62005;50.082;8.988;2024-02-14T01:36:29;100883.81;;;7.10;91.53
73700;BME280;62005;50.082;8.988;2024-02-14T01:38:55;100879.09;;;7.12;90.84
73700;BME280;62005;50.082;8.988;2024-02-14T01:41:20;100870.38;;;7.10;91.20
73700;BME280;62005;50.082;8.988;2024-02-14T01:43:47;100873.72;;;7.12;91.61
73700;BME280;62005;50.082;8.988;2024-02-14T01:46:12;100880.94;;;7.12;90.97
73700;BME280;62005;50.082;8.988;2024-02-14T01:48:39;100886.78;;;7.15;91.38
73700;BME280;62005;50.082;8.988;2024-02-14T01:51:05;100867.03;;;7.08;91.31
73700;BME280;62005;50.082;8.988;2024-02-14T01:53:35;100883.06;;;7.16;90.85
73700;BME280;62005;50.082;8.988;2024-02-14T01:56:01;100869.72;;;7.08;90.51
73700;BME280;62005;50.082;8.988;2024-02-14T01:58:28;100870.75;;;7.07;89.85
73700;BME280;62005;50.082;8.988;2024-02-14T02:00:54;100866.84;;;7.10;89.92
73700;BME280;62005;50.082;8.988;2024-02-14T02:03:24;100863.97;;;7.11;90.03
73700;BME280;62005;50.082;8.988;2024-02-14T02:05:50;100861.28;;;7.11;90.12
73700;BME280;62005;50.082;8.988;2024-02-14T02:08:16;100831.94;;;6.95;90.71
73700;BME280;62005;50.082;8.988;2024-02-14T02:10:41;100858.59;;;7.11;90.31
73700;BME280;62005;50.082;8.988;2024-02-14T02:13:08;100841.19;;;7.07;90.14
73700;BME280;62005;50.082;8.988;2024-02-14T02:15:34;100852.22;;;7.12;89.63
73700;BME280;62005;50.082;8.988;2024-02-14T02:18:00;100851.81;;;7.15;89.58
73700;BME280;62005;50.082;8.988;2024-02-14T02:20:26;100856.56;;;7.13;89.36
73700;BME280;62005;50.082;8.988;2024-02-14T02:22:53;100836.16;;;7.04;89.21
73700;BME280;62005;50.082;8.988;2024-02-14T02:25:18;100851.19;;;7.13;89.08
73700;BME280;62005;50.082;8.988;2024-02-14T02:27:48;100838.78;;;7.12;88.76
73700;BME280;62005;50.082;8.988;2024-02-14T02:30:14;100841.25;;;7.14;88.96
73700;BME280;62005;50.082;8.988;2024-02-14T02:32:39;100842.72;;;7.16;88.30
73700;BME280;62005;50.082;8.988;2024-02-14T02:35:06;100848.38;;;7.21;88.07
73700;BME280;62005;50.082;8.988;2024-02-14T02:37:32;100832.63;;;7.18;88.62
73700;BME280;62005;50.082;8.988;2024-02-14T02:39:58;100841.34;;;7.20;89.16
73700;BME280;62005;50.082;8.988;2024-02-14T02:42:23;100833.88;;;7.22;88.95
73700;BME280;62005;50.082;8.988;2024-02-14T02:44:50;100834.16;;;7.27;88.99
73700;BME280;62005;50.082;8.988;2024-02-14T02:47:15;100829.44;;;7.29;89.07
73700;BME280;62005;50.082;8.988;2024-02-14T02:49:44;100836.50;;;7.30;88.97
73700;BME280;62005;50.082;8.988;2024-02-14T02:52:10;100829.22;;;7.31;88.61
73700;BME280;62005;50.082;8.988;2024-02-14T02:54:36;100831.13;;;7.30;88.35
73700;BME280;62005;50.082;8.988;2024-02-14T02:57:02;100836.84;;;7.27;88.69
73700;BME280;62005;50.082;8.988;2024-02-14T02:59:28;100836.84;;;7.27;88.44
73700;BME280;62005;50.082;8.988;2024-02-14T03:01:55;100858.00;;;7.30;88.62
73700;BME280;62005;50.082;8.988;2024-02-14T03:04:20;100843.91;;;7.28;88.46
73700;BME280;62005;50.082;8.988;2024-02-14T03:06:46;100833.88;;;7.22;88.68
73700;BME280;62005;50.082;8.988;2024-02-14T03:09:11;100815.56;;;7.11;88.56
73700;BME280;62005;50.082;8.988;2024-02-14T03:11:38;100848.50;;;7.34;89.00
73700;BME280;62005;50.082;8.988;2024-02-14T03:14:04;100855.59;;;7.35;88.58
73700;BME280;62005;50.082;8.988;2024-02-14T03:16:30;100844.91;;;7.27;88.61
73700;BME280;62005;50.082;8.988;2024-02-14T03:18:56;100844.81;;;7.35;87.85
73700;BME280;62005;50.082;8.988;2024-02-14T03:21:21;100850.47;;;7.40;88.07
73700;BME280;62005;50.082;8.988;2024-02-14T03:23:47;100846.47;;;7.36;88.60
73700;BME280;62005;50.082;8.988;2024-02-14T03:26:12;100850.63;;;7.39;88.66
73700;BME280;62005;50.082;8.988;2024-02-14T03:28:38;100849.44;;;7.41;89.38
73700;BME280;62005;50.082;8.988;2024-02-14T03:31:04;100844.44;;;7.38;88.12
73700;BME280;62005;50.082;8.988;2024-02-14T03:33:30;100835.72;;;7.36;88.51
73700;BME280;62005;50.082;8.988;2024-02-14T03:35:55;100815.72;;;7.24;88.83
73700;BME280;62005;50.082;8.988;2024-02-14T03:38:30;100853.56;;;7.44;88.81
73700;BME280;62005;50.082;8.988;2024-02-14T03:40:56;100856.19;;;7.52;88.51
73700;BME280;62005;50.082;8.988;2024-02-14T03:43:22;100818.28;;;7.32;88.88
73700;BME280;62005;50.082;8.988;2024-02-14T03:45:49;100841.63;;;7.46;89.11
73700;BME280;62005;50.082;8.988;2024-02-14T03:48:14;100843.94;;;7.49;89.10
73700;BME280;62005;50.082;8.988;2024-02-14T03:50:40;100851.59;;;7.52;88.84
73700;BME280;62005;50.082;8.988;2024-02-14T03:53:08;100849.56;;;7.54;89.65
73700;BME280;62005;50.082;8.988;2024-02-14T03:55:36;100856.59;;;7.55;89.41
73700;BME280;62005;50.082;8.988;2024-02-14T03:58:02;100840.78;;;7.46;89.06
73700;BME280;62005;50.082;8.988;2024-02-14T04:00:29;100861.16;;;7.55;89.52
73700;BME280;62005;50.082;8.988;2024-02-14T04:02:55;100846.34;;;7.44;89.68
73700;BME280;62005;50.082;8.988;2024-02-14T04:05:24;100816.63;;;7.31;89.49
73700;BME280;62005;50.082;8.988;2024-02-14T04:07:50;100853.91;;;7.55;89.31
73700;BME280;62005;50.082;8.988;2024-02-14T04:10:17;100831.63;;;7.40;89.07
73700;BME280;62005;50.082;8.988;2024-02-14T04:12:43;100837.03;;;7.40;89.30
73700;BME280;62005;50.082;8.988;2024-02-14T04:15:09;100838.28;;;7.44;90.15
73700;BME280;62005;50.082;8.988;2024-02-14T04:17:34;100856.34;;;7.50;90.28
73700;BME280;62005;50.082;8.988;2024-02-14T04:20:00;100840.78;;;7.46;89.92
73700;BME280;62005;50.082;8.988;2024-02-14T04:22:25;100863.66;;;7.56;90.79
73700;BME280;62005;50.082;8.988;2024-02-14T04:24:50;100847.84;;;7.47;90.78
73700;BME280;62005;50.082;8.988;2024-02-14T04:27:16;100853.66;;;7.50;91.10
73700;BME280;62005;50.082;8.988;2024-02-14T04:29:45;100866.34;;;7.56;90.75
73700;BME280;62005;50.082;8.988;2024-02-14T04:32:11;100865.31;;;7.57;90.76
73700;BME280;62005;50.082;8.988;2024-02-14T04:34:38;100842.47;;;7.47;90.93
73700;BME280;62005;50.082;8.988;2024-02-14T04:37:05;100825.88;;;7.43;91.08
73700;BME280;62005;50.082;8.988;2024-02-14T04:39:35;100856.25;;;7.58;91.14
73700;BME280;62005;50.082;8.988;2024-02-14T04:42:01;100855.59;;;7.56;90.75
73700;BME280;62005;50.082;8.988;2024-02-14T04:44:28;100857.91;;;7.59;91.29
73700;BME280;62005;50.082;8.988;2024-02-14T04:46:53;100848.78;;;7.60;90.95
73700;BME280;62005;50.082;8.988;2024-02-14T04:49:19;100845.47;;;7.58;90.76
73700;BME280;62005;50.082;8.988;2024-02-14T04:51:45;100828.44;;;7.51;90.64
73700;BME280;62005;50.082;8.988;2024-02-14T04:54:10;100849.69;;;7.67;91.31
73700;BME280;62005;50.082;8.988;2024-02-14T04:56:36;100857.84;;;7.74;90.16
73700;BME280;62005;50.082;8.988;2024-02-14T04:59:01;100855.97;;;7.74;90.79
73700;BME280;62005;50.082;8.988;2024-02-14T05:01:27;100829.34;;;7.58;91.34
73700;BME280;62005;50.082;8.988;2024-02-14T05:03:52;100860.13;;;7.77;90.99
73700;BME280;62005;50.082;8.988;2024-02-14T05:06:18;100858.09;;;7.79;90.50
73700;BME280;62005;50.082;8.988;2024-02-14T05:08:43;100843.13;;;7.70;90.61
73700;BME280;62005;50.082;8.988;2024-02-14T05:11:08;100857.25;;;7.78;91.26
73700;BME280;62005;50.082;8.988;2024-02-14T05:13:35;100855.19;;;7.80;91.72
73700;BME280;62005;50.082;8.988;2024-02-14T05:16:05;100857.25;;;7.78;91.42
73700;BME280;62005;50.082;8.988;2024-02-14T05:18:30;100855.59;;;7.77;91.43
73700;BME280;62005;50.082;8.988;2024-02-14T05:20:56;100849.56;;;7.75;91.02
73700;BME280;62005;50.082;8.988;2024-02-14T05:23:21;100846.13;;;7.81;91.40
73700;BME280;62005;50.082;8.988;2024-02-14T05:25:47;100851.75;;;7.86;91.05
73700;BME280;62005;50.082;8.988;2024-02-14T05:28:13;100846.19;;;7.88;91.05
73700;BME280;62005;50.082;8.988;2024-02-14T05:30:42;100853.66;;;7.92;91.40
73700;BME280;62005;50.082;8.988;2024-02-14T05:33:08;100862.38;;;7.94;91.58
73700;BME280;62005;50.082;8.988;2024-02-14T05:35:33;100855.31;;;7.93;90.80
73700;BME280;62005;50.082;8.988;2024-02-14T05:37:59;100856.59;;;7.97;90.62
73700;BME280;62005;50.082;8.988;2024-02-14T05:40:24;100855.31;;;7.93;91.39
73700;BME280;62005;50.082;8.988;2024-02-14T05:42:49;100852.88;;;7.98;91.40
73700;BME280;62005;50.082;8.988;2024-02-14T05:45:15;100839.16;;;7.93;91.78
73700;BME280;62005;50.082;8.988;2024-02-14T05:47:41;100847.88;;;7.95;91.88
73700;BME280;62005;50.082;8.988;2024-02-14T05:50:07;100848.78;;;8.03;91.80
73700;BME280;62005;50.082;8.988;2024-02-14T05:52:34;100854.66;;;8.13;92.30
73700;BME280;62005;50.082;8.988;2024-02-14T05:54:59;100849.72;;;8.16;92.86
73700;BME280;62005;50.082;8.988;2024-02-14T05:57:25;100857.59;;;8.18;92.70
73700;BME280;62005;50.082;8.988;2024-02-14T05:59:51;100828.91;;;8.04;92.57
73700;BME280;62005;50.082;8.988;2024-02-14T06:02:16;100862.47;;;8.29;93.25
73700;BME280;62005;50.082;8.988;2024-02-14T06:04:42;100852.75;;;8.28;93.67
73700;BME280;62005;50.082;8.988;2024-02-14T06:07:08;100849.41;;;8.26;93.53
73700;BME280;62005;50.082;8.988;2024-02-14T06:09:35;100866.50;;;8.39;94.17
73700;BME280;62005;50.082;8.988;2024-02-14T06:12:01;100872.34;;;8.43;94.12
73700;BME280;62005;50.082;8.988;2024-02-14T06:14:29;100874.00;;;8.44;93.81
73700;BME280;62005;50.082;8.988;2024-02-14T06:16:56;100869.66;;;8.43;93.58
73700;BME280;62005;50.082;8.988;2024-02-14T06:19:22;100868.16;;;8.40;94.11
73700;BME280;62005;50.082;8.988;2024-02-14T06:21:48;100873.59;;;8.47;93.57
73700;BME280;62005;50.082;8.988;2024-02-14T06:24:13;100866.16;;;8.49;93.54
73700;BME280;62005;50.082;8.988;2024-02-14T06:26:39;100882.38;;;8.55;93.53
73700;BME280;62005;50.082;8.988;2024-02-14T06:29:04;100882.81;;;8.59;93.99
73700;BME280;62005;50.082;8.988;2024-02-14T06:31:30;100880.50;;;8.56;93.98
73700;BME280;62005;50.082;8.988;2024-02-14T06:33:55;100876.13;;;8.55;93.66
73700;BME280;62005;50.082;8.988;2024-02-14T06:36:21;100887.34;;;8.58;94.56
73700;BME280;62005;50.082;8.988;2024-02-14T06:38:46;100884.66;;;8.58;94.06
73700;BME280;62005;50.082;8.988;2024-02-14T06:41:12;100879.47;;;8.57;94.86
73700;BME280;62005;50.082;8.988;2024-02-14T06:43:38;100899.66;;;8.67;94.62
73700;BME280;62005;50.082;8.988;2024-02-14T06:46:05;100898.81;;;8.67;95.54
73700;BME280;62005;50.082;8.988;2024-02-14T06:48:31;100901.50;;;8.67;94.95
73700;BME280;62005;50.082;8.988;2024-02-14T06:50:56;100913.56;;;8.71;95.74
73700;BME280;62005;50.082;8.988;2024-02-14T06:53:22;100915.63;;;8.69;95.55
73700;BME280;62005;50.082;8.988;2024-02-14T06:55:47;100913.94;;;8.68;96.73
73700;BME280;62005;50.082;8.988;2024-02-14T06:58:13;100914.34;;;8.65;96.73
73700;BME280;62005;50.082;8.988;2024-02-14T07:00:38;100911.50;;;8.73;96.78
73700;BME280;62005;50.082;8.988;2024-02-14T07:03:04;100926.91;;;8.79;97.24
73700;BME280;62005;50.082;8.988;2024-02-14T07:05:30;100926.44;;;8.75;97.32
73700;BME280;62005;50.082;8.988;2024-02-14T07:07:56;100933.94;;;8.80;97.33
73700;BME280;62005;50.082;8.988;2024-02-14T07:10:21;100936.00;;;8.78;98.44
73700;BME280;62005;50.082;8.988;2024-02-14T07:12:46;100938.06;;;8.76;98.78
73700;BME280;62005;50.082;8.988;2024-02-14T07:15:12;100924.41;;;8.77;98.71
73700;BME280;62005;50.082;8.988;2024-02-14T07:17:38;100935.59;;;8.81;99.39
73700;BME280;62005;50.082;8.988;2024-02-14T07:20:06;100937.28;;;8.82;99.34
73700;BME280;62005;50.082;8.988;2024-02-14T07:22:36;100948.06;;;8.82;99.78
73700;BME280;62005;50.082;8.988;2024-02-14T07:25:02;100946.78;;;8.78;100.00
73700;BME280;62005;50.082;8.988;2024-02-14T07:27:27;100954.66;;;8.79;99.97
73700;BME280;62005;50.082;8.988;2024-02-14T07:29:53;100941.78;;;8.75;100.00
73700;BME280;62005;50.082;8.988;2024-02-14T07:32:18;100936.78;;;8.72;99.40
73700;BME280;62005;50.082;8.988;2024-02-14T07:34:44;100898.09;;;8.52;100.00
73700;BME280;62005;50.082;8.988;2024-02-14T07:37:12;100915.63;;;8.69;99.82
73700;BME280;62005;50.082;8.988;2024-02-14T07:39:40;100917.28;;;8.70;100.00
73700;BME280;62005;50.082;8.988;2024-02-14T07:42:06;100921.91;;;8.76;100.00
73700;BME280;62005;50.082;8.988;2024-02-14T07:44:32;100916.50;;;8.76;100.00
73700;BME280;62005;50.082;8.988;2024-02-14T07:46:57;100889.84;;;8.60;100.00
73700;BME280;62005;50.082;8.988;2024-02-14T07:49:23;100906.94;;;8.73;100.00
73700;BME280;62005;50.082;8.988;2024-02-14T07:51:48;100933.38;;;8.91;100.00
73700;BME280;62005;50.082;8.988;2024-02-14T07:54:13;100898.22;;;8.71;100.00
73700;BME280;62005;50.082;8.988;2024-02-14T07:56:39;100916.72;;;8.81;100.00
73700;BME280;62005;50.082;8.988;2024-02-14T07:59:04;100909.03;;;8.78;100.00
73700;BME280;62005;50.082;8.988;2024-02-14T08:01:30;100909.69;;;8.80;100.00
73700;BME280;62005;50.082;8.988;2024-02-14T08:03:56;100912.38;;;8.80;100.00
73700;BME280;62005;50.082;8.988;2024-02-14T08:06:21;100921.50;;;8.79;100.00
73700;BME280;62005;50.082;8.988;2024-02-14T08:08:47;100896.13;;;8.67;100.00
73700;BME280;62005;50.082;8.988;2024-02-14T08:11:16;100929.03;;;8.90;100.00
73700;BME280;62005;50.082;8.988;2024-02-14T08:13:43;100923.78;;;8.82;100.00
73700;BME280;62005;50.082;8.988;2024-02-14T08:16:08;100947.09;;;8.96;100.00
73700;BME280;62005;50.082;8.988;2024-02-14T08:18:34;100936.47;;;8.88;100.00
73700;BME280;62005;50.082;8.988;2024-02-14T08:21:00;100956.88;;;8.97;100.00
73700;BME280;62005;50.082;8.988;2024-02-14T08:23:26;100920.06;;;8.83;100.00
73700;BME280;62005;50.082;8.988;2024-02-14T08:25:51;100942.34;;;8.98;100.00
73700;BME280;62005;50.082;8.988;2024-02-14T08:28:16;100939.81;;;8.90;100.00
73700;BME280;62005;50.082;8.988;2024-02-14T08:30:46;100924.81;;;8.81;100.00
73700;BME280;62005;50.082;8.988;2024-02-14T08:33:12;100927.69;;;8.79;100.00
73700;BME280;62005;50.082;8.988;2024-02-14T08:35:38;100909.84;;;8.72;100.00
73700;BME280;62005;50.082;8.988;2024-02-14T08:38:04;100956.47;;;9.00;100.00
73700;BME280;62005;50.082;8.988;2024-02-14T08:40:29;100926.09;;;8.85;100.00
73700;BME280;62005;50.082;8.988;2024-02-14T08:42:54;100916.50;;;8.76;100.00
73700;BME280;62005;50.082;8.988;2024-02-14T08:45:20;100939.41;;;8.93;100.00
73700;BME280;62005;50.082;8.988;2024-02-14T08:47:46;100932.38;;;8.92;100.00
73700;BME280;62005;50.082;8.988;2024-02-14T08:50:11;100967.97;;;9.15;100.00
73700;BME280;62005;50.082;8.988;2024-02-14T08:52:37;100954.50;;;9.15;100.00
73700;BME280;62005;50.082;8.988;2024-02-14T08:55:06;100928.88;;;8.98;100.00
73700;BME280;62005;50.082;8.988;2024-02-14T08:57:36;100928.88;;;8.98;100.00
73700;BME280;62005;50.082;8.988;2024-02-14T09:00:01;100947.41;;;9.14;100.00
73700;BME280;62005;50.082;8.988;2024-02-14T09:02:28;100950.75;;;9.16;100.00
73700;BME280;62005;50.082;8.988;2024-02-14T09:04:53;100926.66;;;9.08;100.00
73700;BME280;62005;50.082;8.988;2024-02-14T09:07:19;100923.31;;;9.06;100.00
73700;BME280;62005;50.082;8.988;2024-02-14T09:09:44;100920.41;;;9.07;100.00
73700;BME280;62005;50.082;8.988;2024-02-14T09:12:11;100950.13;;;9.20;100.00
73700;BME280;62005;50.082;8.988;2024-02-14T09:14:36;100932.50;;;9.18;100.00
73700;BME280;62005;50.082;8.988;2024-02-14T09:17:02;100938.31;;;9.15;100.00
73700;BME280;62005;50.082;8.988;2024-02-14T09:19:27;100961.22;;;9.32;100.00
73700;BME280;62005;50.082;8.988;2024-02-14T09:21:53;100966.03;;;9.37;100.00
73700;BME280;62005;50.082;8.988;2024-02-14T09:24:18;100960.19;;;9.33;100.00
73700;BME280;62005;50.082;8.988;2024-02-14T09:26:44;100933.31;;;9.12;100.00
73700;BME280;62005;50.082;8.988;2024-02-14T09:29:09;100959.94;;;9.28;100.00
73700;BME280;62005;50.082;8.988;2024-02-14T09:31:37;100994.50;;;9.52;100.00
73700;BME280;62005;50.082;8.988;2024-02-14T09:34:03;100997.84;;;9.54;100.00
73700;BME280;62005;50.082;8.988;2024-02-14T09:36:28;100979.13;;;9.46;100.00
73700;BME280;62005;50.082;8.988;2024-02-14T09:38:57;100983.72;;;9.52;100.00
73700;BME280;62005;50.082;8.988;2024-02-14T09:41:31;100981.25;;;9.57;100.00
73700;BME280;62005;50.082;8.988;2024-02-14T09:44:00;100972.09;;;9.45;100.00
73700;BME280;62005;50.082;8.988;2024-02-14T09:46:25;100995.81;;;9.63;100.00
73700;BME280;62005;50.082;8.988;2024-02-14T09:48:52;100998.09;;;9.59;100.00
73700;BME280;62005;50.082;8.988;2024-02-14T09:51:17;100994.97;;;9.62;100.00
73700;BME280;62005;50.082;8.988;2024-02-14T09:53:43;100979.59;;;9.56;100.00
73700;BME280;62005;50.082;8.988;2024-02-14T09:56:10;100982.13;;;9.64;100.00
73700;BME280;62005;50.082;8.988;2024-02-14T09:58:36;100985.88;;;9.63;100.00
73700;BME280;62005;50.082;8.988;2024-02-14T10:01:02;100986.69;;;9.70;100.00
73700;BME280;62005;50.082;8.988;2024-02-14T10:03:28;100986.69;;;9.70;100.00
73700;BME280;62005;50.082;8.988;2024-02-14T10:05:54;100952.59;;;9.56;100.00
73700;BME280;62005;50.082;8.988;2024-02-14T10:08:19;100995.47;;;9.79;100.00
73700;BME280;62005;50.082;8.988;2024-02-14T10:10:49;100965.94;;;9.71;100.00
73700;BME280;62005;50.082;8.988;2024-02-14T10:13:15;100990.50;;;9.82;100.00
73700;BME280;62005;50.082;8.988;2024-02-14T10:15:41;100986.78;;;9.83;100.00
73700;BME280;62005;50.082;8.988;2024-02-14T10:18:06;100983.88;;;9.85;100.00
73700;BME280;62005;50.082;8.988;2024-02-14T10:20:34;100984.88;;;9.77;100.00
73700;BME280;62005;50.082;8.988;2024-02-14T10:23:07;100993.81;;;9.84;100.00
73700;BME280;62005;50.082;8.988;2024-02-14T10:25:36;100990.91;;;9.79;100.00
73700;BME280;62005;50.082;8.988;2024-02-14T10:28:05;100993.81;;;9.84;100.00
73700;BME280;62005;50.082;8.988;2024-02-14T10:30:38;100974.28;;;9.82;100.00
73700;BME280;62005;50.082;8.988;2024-02-14T10:33:05;100983.03;;;9.84;100.00
73700;BME280;62005;50.082;8.988;2024-02-14T10:35:34;100998.84;;;10.00;100.00
73700;BME280;62005;50.082;8.988;2024-02-14T10:38:02;100993.66;;;9.99;100.00
73700;BME280;62005;50.082;8.988;2024-02-14T10:40:29;101003.25;;;10.01;100.00
73700;BME280;62005;50.082;8.988;2024-02-14T10:42:55;101006.34;;;10.05;100.00
73700;BME280;62005;50.082;8.988;2024-02-14T10:45:22;101001.34;;;10.02;100.00
73700;BME280;62005;50.082;8.988;2024-02-14T10:47:49;100983.47;;;9.94;100.00
73700;BME280;62005;50.082;8.988;2024-02-14T10:50:17;101001.81;;;10.12;100.00
73700;BME280;62005;50.082;8.988;2024-02-14T10:52:48;100977.25;;;10.00;100.00
73700;BME280;62005;50.082;8.988;2024-02-14T10:55:18;101018.28;;;10.23;100.00
73700;BME280;62005;50.082;8.988;2024-02-14T10:57:46;101028.06;;;10.24;100.00
73700;BME280;62005;50.082;8.988;2024-02-14T11:00:14;101013.91;;;10.22;100.00
73700;BME280;62005;50.082;8.988;2024-02-14T11:02:43;100996.66;;;10.23;100.00
73700;BME280;62005;50.082;8.988;2024-02-14T11:05:16;101007.03;;;10.26;100.00
73700;BME280;62005;50.082;8.988;2024-02-14T11:07:47;100978.16;;;10.20;100.00
73700;BME280;62005;50.082;8.988;2024-02-14T11:10:16;101013.09;;;10.35;100.00
73700;BME280;62005;50.082;8.988;2024-02-14T11:12:42;100986.47;;;10.25;100.00
73700;BME280;62005;50.082;8.988;2024-02-14T11:15:22;100997.31;;;10.38;100.00
73700;BME280;62005;50.082;8.988;2024-02-14T11:17:48;100986.91;;;10.35;100.00
73700;BME280;62005;50.082;8.988;2024-02-14T11:20:19;100999.16;;;10.44;100.00
73700;BME280;62005;50.082;8.988;2024-02-14T11:22:56;100998.56;;;10.49;100.00
73700;BME280;62005;50.082;8.988;2024-02-14T11:25:32;100994.41;;;10.46;100.00
73700;BME280;62005;50.082;8.988;2024-02-14T11:28:02;100994.41;;;10.53;100.00
73700;BME280;62005;50.082;8.988;2024-02-14T11:30:39;100999.41;;;10.63;100.00
73700;BME280;62005;50.082;8.988;2024-02-14T11:33:13;100974.47;;;10.54;100.00
73700;BME280;62005;50.082;8.988;2024-02-14T11:35:42;100979.44;;;10.64;100.00
73700;BME280;62005;50.082;8.988;2024-02-14T11:38:09;100972.78;;;10.60;100.00
73700;BME280;62005;50.082;8.988;2024-02-14T11:40:35;100964.88;;;10.65;100.00
73700;BME280;62005;50.082;8.988;2024-02-14T11:43:00;100984.84;;;10.77;100.00
73700;BME280;62005;50.082;8.988;2024-02-14T11:45:27;100999.19;;;10.90;100.00
73700;BME280;62005;50.082;8.988;2024-02-14T11:47:53;100938.25;;;10.62;100.00
73700;BME280;62005;50.082;8.988;2024-02-14T11:50:20;100954.03;;;10.78;100.00
73700;BME280;62005;50.082;8.988;2024-02-14T11:52:46;100967.78;;;10.83;99.96
73700;BME280;62005;50.082;8.988;2024-02-14T11:55:12;100987.31;;;10.98;100.00
73700;BME280;62005;50.082;8.988;2024-02-14T11:57:41;100966.97;;;10.89;99.69
73700;BME280;62005;50.082;8.988;2024-02-14T12:00:09;100974.84;;;10.97;99.50
73700;BME280;62005;50.082;8.988;2024-02-14T12:02:35;100987.72;;;11.08;99.90
73700;BME280;62005;50.082;8.988;2024-02-14T12:05:01;100978.78;;;11.01;100.00
73700;BME280;62005;50.082;8.988;2024-02-14T12:07:30;100963.59;;;11.06;99.28
73700;BME280;62005;50.082;8.988;2024-02-14T12:09:56;100961.06;;;11.18;99.38
73700;BME280;62005;50.082;8.988;2024-02-14T12:12:22;100944.41;;;11.14;99.22
73700;BME280;62005;50.082;8.988;2024-02-14T12:14:52;100966.88;;;11.28;98.53
73700;BME280;62005;50.082;8.988;2024-02-14T12:17:17;100948.16;;;11.20;98.13
73700;BME280;62005;50.082;8.988;2024-02-14T12:19:47;100954.19;;;11.22;97.82
73700;BME280;62005;50.082;8.988;2024-02-14T12:22:15;100964.34;;;11.33;98.08
73700;BME280;62005;50.082;8.988;2024-02-14T12:24:45;100950.44;;;11.23;98.53
73700;BME280;62005;50.082;8.988;2024-02-14T12:27:12;100968.91;;;11.32;98.24
73700;BME280;62005;50.082;8.988;2024-02-14T12:29:38;100990.56;;;11.39;98.17
73700;BME280;62005;50.082;8.988;2024-02-14T12:32:07;100962.31;;;11.22;98.26
73700;BME280;62005;50.082;8.988;2024-02-14T12:34:33;100979.34;;;11.29;98.62
73700;BME280;62005;50.082;8.988;2024-02-14T12:36:58;100940.50;;;11.04;99.02
73700;BME280;62005;50.082;8.988;2024-02-14T12:39:29;100967.91;;;11.27;98.98
73700;BME280;62005;50.082;8.988;2024-02-14T12:41:54;100967.72;;;11.28;98.57
73700;BME280;62005;50.082;8.988;2024-02-14T12:44:20;100938.19;;;11.14;98.91
73700;BME280;62005;50.082;8.988;2024-02-14T12:46:46;100950.66;;;11.15;99.09
73700;BME280;62005;50.082;8.988;2024-02-14T12:49:11;100946.13;;;11.09;99.13
73700;BME280;62005;50.082;8.988;2024-02-14T12:51:37;100972.28;;;11.28;99.08